Terminal Aerodrome Forecast
Issued by NWS Tampa Bay Area, FL

Home | Current Version | Previous Version | Text Only | Print | Product List | Glossary On
Versions: 1 2 3 4 5 6 7 8 9 10 11 12 13 14 15 16
000
FTUS42 KTBW 021130
TAFFMY
TAF
KFMY 021130Z 0212/0312 11005KT P6SM FEW030 SCT050
     FM021500 15008KT P6SM SCT030 BKN050
     FM022000 23009KT P6SM VCTS SCT030CB BKN250
     FM030000 24007KT P6SM SCT030 BKN100
     FM030200 VRB05KT P6SM SCT040 BKN250
     FM031000 14003KT P6SM SCT020 BKN040=

USA.gov is the U.S. government's official web portal to all federal, state and local government web resources and services.